createdAt,value
2023-05-10T00:02:55.032Z,12.57
2023-05-10T00:05:58.166Z,12.38
2023-05-10T00:09:13.878Z,12.32
2023-05-10T00:12:17.957Z,12.21
2023-05-10T00:15:56.014Z,12.20
2023-05-10T00:19:02.059Z,11.92
2023-05-10T00:22:29.970Z,12.09
2023-05-10T00:25:39.389Z,12.05
2023-05-10T00:28:54.872Z,11.92
2023-05-10T00:32:03.921Z,11.91
2023-05-10T00:35:22.270Z,11.86
2023-05-10T00:39:08.011Z,11.81
2023-05-10T00:42:37.655Z,11.74
2023-05-10T00:49:41.693Z,11.64
2023-05-10T00:53:01.219Z,11.68
2023-05-10T00:56:11.024Z,11.61
2023-05-10T00:59:47.869Z,11.58
2023-05-10T01:03:07.405Z,11.51
2023-05-10T01:06:11.398Z,11.45
2023-05-10T01:09:45.138Z,11.39
2023-05-10T01:13:03.191Z,11.44
2023-05-10T01:16:42.006Z,11.42
2023-05-10T01:19:55.454Z,11.49
2023-05-10T01:27:27.000Z,11.50
2023-05-10T01:31:12.775Z,11.61
2023-05-10T01:34:28.318Z,11.63
2023-05-10T01:41:48.899Z,11.67
2023-05-10T01:49:05.297Z,11.68
2023-05-10T01:52:21.436Z,11.75
2023-05-10T02:09:59.785Z,12.62
2023-05-10T02:13:11.751Z,12.62
2023-05-10T02:16:33.599Z,11.97
2023-05-10T02:19:50.817Z,11.98
2023-05-10T02:23:10.792Z,11.99
2023-05-10T02:26:24.865Z,11.97
2023-05-10T02:29:45.186Z,12.07
2023-05-10T02:32:58.908Z,12.09
2023-05-10T02:36:18.007Z,12.08
2023-05-10T02:39:30.597Z,12.12
2023-05-10T02:42:53.911Z,12.09
2023-05-10T02:46:08.737Z,12.05
2023-05-10T02:53:40.940Z,12.06
2023-05-10T02:57:02.581Z,12.01
2023-05-10T03:00:22.671Z,11.98
2023-05-10T03:03:44.180Z,11.89
2023-05-10T03:06:48.689Z,11.86
2023-05-10T03:10:16.071Z,11.77
2023-05-10T03:13:33.505Z,11.74
2023-05-10T03:16:55.403Z,11.67
2023-05-10T03:20:18.213Z,11.58
2023-05-10T03:23:50.272Z,11.57
2023-05-10T03:30:57.656Z,11.45
2023-05-10T03:34:11.235Z,11.35
2023-05-10T03:37:22.606Z,11.45
2023-05-10T03:40:49.047Z,11.54
2023-05-10T03:44:00.777Z,11.56
2023-05-10T03:47:11.604Z,11.60
2023-05-10T03:50:33.432Z,11.61
2023-05-10T03:53:43.627Z,11.62
2023-05-10T03:57:10.646Z,11.62
2023-05-10T04:00:27.713Z,11.59
2023-05-10T04:03:38.652Z,11.67
2023-05-10T04:06:54.857Z,11.70
2023-05-10T04:10:06.813Z,11.84
2023-05-10T04:13:22.856Z,11.86
2023-05-10T04:16:38.206Z,11.80
2023-05-10T04:19:54.583Z,11.81
2023-05-10T04:22:59.915Z,11.75
2023-05-10T04:26:41.148Z,11.60
2023-05-10T04:30:26.744Z,11.50
2023-05-10T04:33:31.966Z,11.45
2023-05-10T04:36:54.016Z,11.42
2023-05-10T04:40:06.382Z,11.41
2023-05-10T04:43:18.432Z,11.51
2023-05-10T04:46:31.764Z,11.70
2023-05-10T04:53:07.356Z,11.98
2023-05-10T05:00:00.644Z,12.17
2023-05-10T05:03:10.751Z,12.26
2023-05-10T05:18:43.614Z,12.40
2023-05-10T05:22:33.165Z,12.61
2023-05-10T05:26:48.429Z,12.65
2023-05-10T05:41:27.277Z,12.97
2023-05-10T05:48:24.808Z,13.60
2023-05-10T05:51:47.999Z,13.61
2023-05-10T06:13:54.243Z,21.26
2023-05-10T06:17:12.937Z,21.17
2023-05-10T06:32:35.275Z,19.29
2023-05-10T06:36:38.712Z,18.71
2023-05-10T06:39:56.668Z,18.59
2023-05-10T06:42:59.756Z,18.70
2023-05-10T06:46:48.749Z,19.21
2023-05-10T06:53:45.156Z,20.06
2023-05-10T06:56:57.415Z,18.17
2023-05-10T07:00:07.281Z,16.91
2023-05-10T07:03:19.812Z,17.04
2023-05-10T07:17:15.874Z,17.08
2023-05-10T07:20:31.628Z,16.45
2023-05-10T07:40:06.692Z,18.01
2023-05-10T07:43:20.503Z,18.37
2023-05-10T07:47:16.338Z,17.90
2023-05-10T07:54:04.793Z,17.86
2023-05-10T07:57:27.759Z,16.65
2023-05-10T08:01:26.246Z,16.67
2023-05-10T08:04:41.050Z,17.00
2023-05-10T08:11:14.871Z,17.62
2023-05-10T08:14:27.602Z,17.21
2023-05-10T08:17:43.956Z,16.61
2023-05-10T08:21:02.975Z,17.44
2023-05-10T08:24:21.111Z,17.00
2023-05-10T08:27:42.548Z,17.25
2023-05-10T08:31:10.690Z,16.81
2023-05-10T08:34:27.734Z,16.77
2023-05-10T08:37:34.244Z,16.64
2023-05-10T08:40:53.699Z,16.26
2023-05-10T08:56:35.271Z,17.50
2023-05-10T08:59:45.536Z,16.67
2023-05-10T09:03:25.596Z,16.53
2023-05-10T09:07:01.692Z,16.49
2023-05-10T09:10:16.701Z,17.01
2023-05-10T09:13:46.634Z,17.44
2023-05-10T09:40:04.564Z,18.74
2023-05-10T10:59:20.892Z,19.31
2023-05-10T11:06:44.961Z,18.56
2023-05-10T11:10:09.430Z,18.72
2023-05-10T11:53:53.727Z,19.59
2023-05-10T12:09:12.957Z,19.40
2023-05-10T12:19:44.822Z,19.14
2023-05-10T12:27:18.113Z,19.53
2023-05-10T12:30:37.626Z,19.19
2023-05-10T16:41:07.027Z,18.65
2023-05-10T16:44:26.516Z,18.44
2023-05-10T16:52:15.549Z,18.34
2023-05-10T17:00:07.440Z,18.05
2023-05-10T17:10:53.886Z,17.72
2023-05-10T19:20:54.874Z,15.85
2023-05-10T19:41:50.138Z,15.79
2023-05-10T20:14:21.600Z,15.57
2023-05-10T20:49:02.043Z,15.49
2023-05-10T20:52:44.033Z,15.50
2023-05-10T21:00:12.163Z,15.44
2023-05-10T21:10:17.335Z,15.42
2023-05-10T21:13:54.523Z,15.40
2023-05-10T21:17:06.489Z,15.37
2023-05-10T21:24:24.511Z,15.35
2023-05-10T21:27:38.793Z,15.33
2023-05-10T21:31:06.595Z,15.27
2023-05-10T21:38:21.830Z,15.27
2023-05-10T21:41:44.117Z,15.22
2023-05-10T21:48:47.361Z,15.20
2023-05-10T21:52:02.942Z,15.23
2023-05-10T21:56:31.696Z,15.17
2023-05-10T21:59:40.993Z,15.17
2023-05-10T22:10:02.233Z,15.04
2023-05-10T22:13:14.137Z,15.05
2023-05-10T22:16:43.862Z,15.02
2023-05-10T22:23:53.463Z,15.01
2023-05-10T22:30:43.712Z,14.99
2023-05-10T22:51:58.589Z,15.16
2023-05-10T23:03:28.346Z,14.19
2023-05-10T23:10:14.212Z,14.05
2023-05-10T23:13:42.734Z,13.99
2023-05-10T23:17:23.645Z,13.87
2023-05-10T23:20:56.391Z,13.80
2023-05-10T23:24:17.414Z,13.89
2023-05-10T23:34:24.586Z,13.83
2023-05-10T23:37:53.544Z,13.91
2023-05-10T23:44:26.759Z,13.70
2023-05-10T23:47:53.027Z,13.64
2023-05-10T23:51:29.370Z,13.62
2023-05-10T23:59:00.755Z,13.68
